createdAt,value
2023-05-10T00:01:11.283Z,79.30
2023-05-10T00:03:40.931Z,79.50
2023-05-10T00:06:10.045Z,79.50
2023-05-10T00:08:39.055Z,79.50
2023-05-10T00:11:09.527Z,79.60
2023-05-10T00:13:38.709Z,79.60
2023-05-10T00:16:08.297Z,79.70
2023-05-10T00:18:37.381Z,79.70
2023-05-10T00:21:07.207Z,79.80
2023-05-10T00:23:36.312Z,79.80
2023-05-10T00:26:05.339Z,79.80
2023-05-10T00:28:35.734Z,79.90
2023-05-10T00:31:05.788Z,80.00
2023-05-10T00:33:34.798Z,80.00
2023-05-10T00:36:03.882Z,80.20
2023-05-10T00:38:33.083Z,80.40
2023-05-10T00:41:02.299Z,80.40
2023-05-10T00:43:35.213Z,80.50
2023-05-10T00:46:04.348Z,80.70
2023-05-10T00:48:35.590Z,81.30
2023-05-10T00:51:05.429Z,80.90
2023-05-10T00:53:34.789Z,80.90
2023-05-10T00:56:04.306Z,81.00
2023-05-10T00:58:33.560Z,81.10
2023-05-10T01:01:04.493Z,81.20
2023-05-10T01:03:34.352Z,81.40
2023-05-10T01:06:04.377Z,81.40
2023-05-10T01:08:35.491Z,81.60
2023-05-10T01:11:04.627Z,81.60
2023-05-10T01:13:37.244Z,81.60
2023-05-10T01:16:09.077Z,81.60
2023-05-10T01:18:40.921Z,81.70
2023-05-10T01:21:30.665Z,81.70
2023-05-10T01:24:26.748Z,81.80
2023-05-10T01:27:33.274Z,81.90
2023-05-10T01:30:26.591Z,82.00
2023-05-10T01:33:01.462Z,82.00
2023-05-10T01:35:39.344Z,82.00
2023-05-10T01:38:17.227Z,82.10
2023-05-10T01:40:54.493Z,82.60
2023-05-10T01:43:28.639Z,82.40
2023-05-10T01:46:11.305Z,82.60
2023-05-10T01:48:48.053Z,82.80
2023-05-10T01:51:23.467Z,82.90
2023-05-10T01:53:57.065Z,83.20
2023-05-10T01:56:28.482Z,83.30
2023-05-10T01:58:57.775Z,83.50
2023-05-10T02:01:28.292Z,83.60
2023-05-10T02:04:00.369Z,83.40
2023-05-10T02:06:29.665Z,83.60
2023-05-10T02:08:59.648Z,83.70
2023-05-10T02:11:30.460Z,83.70
2023-05-10T02:14:00.937Z,83.70
2023-05-10T02:16:32.970Z,83.80
2023-05-10T02:19:05.380Z,83.70
2023-05-10T02:21:35.584Z,83.70
2023-05-10T02:24:06.500Z,83.50
2023-05-10T02:26:37.405Z,83.30
2023-05-10T02:29:08.930Z,83.30
2023-05-10T02:31:39.942Z,83.30
2023-05-10T02:34:12.499Z,83.20
2023-05-10T02:36:43.902Z,83.30
2023-05-10T02:39:14.559Z,83.30
2023-05-10T02:41:45.531Z,83.30
2023-05-10T02:44:17.719Z,83.00
2023-05-10T02:46:47.174Z,83.10
2023-05-10T02:49:18.236Z,83.20
2023-05-10T02:51:53.100Z,83.30
2023-05-10T02:54:26.651Z,83.30
2023-05-10T02:57:00.465Z,83.30
2023-05-10T02:59:29.658Z,83.40
2023-05-10T03:01:58.739Z,83.40
2023-05-10T03:04:29.253Z,83.40
2023-05-10T03:07:00.264Z,83.30
2023-05-10T03:09:29.473Z,83.30
2023-05-10T03:12:06.763Z,83.30
2023-05-10T03:14:50.096Z,83.20
2023-05-10T03:17:26.014Z,83.20
2023-05-10T03:19:58.953Z,83.10
2023-05-10T03:22:33.386Z,83.10
2023-05-10T03:25:06.769Z,83.00
2023-05-10T03:27:41.285Z,82.90
2023-05-10T03:30:12.616Z,82.90
2023-05-10T03:32:41.753Z,82.90
2023-05-10T03:35:13.292Z,82.80
2023-05-10T03:37:42.488Z,82.70
2023-05-10T03:40:11.947Z,82.70
2023-05-10T03:42:43.580Z,82.80
2023-05-10T03:45:12.983Z,82.90
2023-05-10T03:48:00.683Z,83.00
2023-05-10T03:50:31.253Z,83.10
2023-05-10T03:53:00.271Z,83.10
2023-05-10T03:55:30.902Z,83.20
2023-05-10T03:57:59.951Z,83.30
2023-05-10T04:00:28.994Z,83.40
2023-05-10T04:02:58.500Z,83.40
2023-05-10T04:05:27.985Z,83.40
2023-05-10T04:07:58.393Z,83.50
2023-05-10T04:10:27.426Z,83.40
2023-05-10T04:12:56.502Z,83.40
2023-05-10T04:15:25.724Z,83.40
2023-05-10T04:17:54.852Z,83.40
2023-05-10T04:20:23.975Z,83.40
2023-05-10T04:22:52.982Z,83.50
2023-05-10T04:25:23.532Z,83.50
2023-05-10T04:27:52.522Z,83.60
2023-05-10T04:30:21.708Z,83.70
2023-05-10T04:32:50.683Z,83.90
2023-05-10T04:35:19.909Z,84.00
2023-05-10T04:37:48.908Z,84.10
2023-05-10T04:40:18.320Z,84.20
2023-05-10T04:42:49.080Z,84.30
2023-05-10T04:45:18.198Z,84.40
2023-05-10T04:47:50.031Z,84.50
2023-05-10T04:50:19.309Z,84.50
2023-05-10T04:52:48.353Z,84.70
2023-05-10T04:55:17.515Z,84.80
2023-05-10T04:57:46.555Z,84.80
2023-05-10T05:00:18.196Z,85.00
2023-05-10T05:02:47.538Z,85.00
2023-05-10T05:05:16.619Z,85.10
2023-05-10T05:07:45.609Z,85.00
2023-05-10T05:10:14.780Z,85.10
2023-05-10T05:12:43.952Z,85.20
2023-05-10T05:15:13.558Z,85.20
2023-05-10T05:17:44.033Z,85.10
2023-05-10T05:20:15.998Z,85.00
2023-05-10T05:22:45.304Z,85.00
2023-05-10T05:25:14.438Z,85.00
2023-05-10T05:27:43.510Z,85.00
2023-05-10T05:30:13.648Z,85.00
2023-05-10T05:32:44.166Z,85.00
2023-05-10T05:35:13.317Z,85.10
2023-05-10T05:37:42.403Z,85.10
2023-05-10T05:40:15.214Z,85.00
2023-05-10T05:42:44.230Z,84.90
2023-05-10T05:45:14.922Z,84.90
2023-05-10T05:47:45.547Z,85.00
2023-05-10T05:50:14.721Z,84.80
2023-05-10T05:52:43.738Z,84.80
2023-05-10T05:55:12.951Z,84.90
2023-05-10T05:57:42.228Z,84.80
2023-05-10T06:00:11.937Z,84.80
2023-05-10T06:02:45.462Z,84.80
2023-05-10T06:05:15.276Z,84.80
2023-05-10T06:07:44.540Z,84.70
2023-05-10T06:10:13.591Z,84.70
2023-05-10T06:12:42.972Z,84.60
2023-05-10T06:15:13.978Z,84.60
2023-05-10T06:17:44.420Z,84.60
2023-05-10T06:20:15.915Z,84.60
2023-05-10T06:22:45.389Z,84.50
2023-05-10T06:25:15.739Z,84.50
2023-05-10T06:27:48.025Z,84.40
2023-05-10T06:30:19.136Z,84.20
2023-05-10T06:32:48.349Z,84.00
2023-05-10T06:35:19.260Z,83.80
2023-05-10T06:37:48.693Z,83.60
2023-05-10T06:40:18.220Z,83.40
2023-05-10T06:42:47.418Z,83.20
2023-05-10T06:45:17.531Z,83.00
2023-05-10T06:47:47.031Z,82.90
2023-05-10T06:50:19.932Z,82.80
2023-05-10T06:52:49.887Z,82.80
2023-05-10T06:55:20.238Z,82.90
2023-05-10T06:57:49.560Z,82.90
2023-05-10T07:00:19.904Z,82.70
2023-05-10T07:02:50.041Z,82.30
2023-05-10T07:05:21.241Z,82.10
2023-05-10T07:07:50.211Z,82.00
2023-05-10T07:10:19.260Z,81.80
2023-05-10T07:12:48.400Z,81.70
2023-05-10T07:15:17.723Z,81.60
2023-05-10T07:17:47.594Z,81.50
2023-05-10T07:20:16.967Z,81.50
2023-05-10T07:22:47.371Z,81.30
2023-05-10T07:25:16.629Z,81.40
2023-05-10T07:27:46.019Z,81.50
2023-05-10T07:30:16.080Z,81.30
2023-05-10T07:32:45.318Z,81.30
2023-05-10T07:35:14.682Z,81.20
2023-05-10T07:37:43.787Z,81.20
2023-05-10T07:40:14.447Z,81.20
2023-05-10T07:42:43.433Z,80.90
2023-05-10T07:45:12.751Z,80.60
2023-05-10T07:47:41.794Z,80.30
2023-05-10T07:50:11.345Z,80.30
2023-05-10T07:52:40.352Z,80.10
2023-05-10T07:55:10.619Z,80.00
2023-05-10T07:57:41.109Z,79.80
2023-05-10T08:00:11.074Z,79.50
2023-05-10T08:02:43.733Z,79.30
2023-05-10T08:05:14.709Z,79.20
2023-05-10T08:07:43.955Z,79.10
2023-05-10T08:10:15.792Z,78.90
2023-05-10T08:12:48.817Z,78.60
2023-05-10T08:15:18.138Z,78.60
2023-05-10T08:17:47.408Z,78.70
2023-05-10T08:20:17.829Z,78.50
2023-05-10T08:22:48.556Z,78.30
2023-05-10T08:25:19.431Z,78.20
2023-05-10T08:27:50.169Z,78.10
2023-05-10T08:30:19.213Z,78.30
2023-05-10T08:32:48.456Z,78.40
2023-05-10T08:35:18.963Z,78.40
2023-05-10T08:37:48.126Z,78.40
2023-05-10T08:40:18.189Z,78.30
2023-05-10T08:43:06.888Z,78.00
2023-05-10T08:45:40.075Z,77.60
2023-05-10T08:48:10.615Z,77.50
2023-05-10T08:50:40.635Z,77.70
2023-05-10T08:53:12.677Z,77.80
2023-05-10T08:55:43.862Z,77.70
2023-05-10T08:58:14.424Z,77.60
2023-05-10T09:00:43.756Z,77.40
2023-05-10T09:03:12.931Z,77.50
2023-05-10T09:05:42.435Z,77.30
2023-05-10T09:08:11.587Z,77.20
2023-05-10T09:10:42.662Z,77.30
2023-05-10T09:13:14.085Z,77.50
2023-05-10T09:15:43.010Z,77.50
2023-05-10T09:18:12.066Z,77.70
2023-05-10T09:20:41.219Z,77.70
2023-05-10T09:23:10.526Z,77.90
2023-05-10T09:25:39.760Z,77.90
2023-05-10T09:28:09.620Z,78.20
2023-05-10T09:30:40.405Z,78.30
2023-05-10T09:33:09.502Z,78.50
2023-05-10T09:35:41.209Z,78.40
2023-05-10T09:38:11.436Z,78.20
2023-05-10T09:40:40.618Z,77.80
2023-05-10T09:43:11.907Z,77.40
2023-05-10T09:45:43.326Z,77.50
2023-05-10T09:48:12.541Z,77.50
2023-05-10T09:50:41.619Z,77.60
2023-05-10T09:53:10.717Z,77.70
2023-05-10T09:55:45.899Z,77.70
2023-05-10T09:58:15.735Z,77.60
2023-05-10T10:00:48.960Z,77.40
2023-05-10T10:03:20.468Z,77.20
2023-05-10T10:05:50.340Z,77.00
2023-05-10T10:08:19.933Z,77.00
2023-05-10T10:10:51.570Z,76.70
2023-05-10T10:13:20.714Z,76.70
2023-05-10T10:15:52.281Z,76.60
2023-05-10T10:18:24.835Z,76.90
2023-05-10T10:21:08.188Z,77.60
2023-05-10T10:23:38.108Z,78.20
2023-05-10T10:26:07.798Z,79.00
2023-05-10T10:28:50.301Z,79.30
2023-05-10T10:31:30.192Z,79.90
2023-05-10T10:34:44.942Z,79.50
2023-05-10T10:40:25.867Z,80.20
2023-05-10T10:42:55.802Z,78.90
2023-05-10T10:45:26.451Z,78.80
2023-05-10T10:48:25.904Z,78.70
2023-05-10T10:50:59.860Z,78.40
2023-05-10T10:53:30.508Z,77.90
2023-05-10T10:56:11.033Z,77.50
2023-05-10T10:58:41.629Z,76.70
2023-05-10T11:01:17.972Z,76.40
2023-05-10T11:04:22.569Z,76.00
2023-05-10T11:06:51.753Z,75.80
2023-05-10T11:09:21.836Z,75.80
2023-05-10T11:11:56.583Z,75.70
2023-05-10T11:14:25.898Z,76.60
2023-05-10T11:16:55.033Z,75.70
2023-05-10T11:19:30.202Z,75.20
2023-05-10T11:22:18.014Z,75.00
2023-05-10T11:24:59.276Z,74.70
2023-05-10T11:27:28.445Z,74.30
2023-05-10T11:29:57.633Z,74.10
2023-05-10T11:32:27.055Z,73.60
2023-05-10T11:35:09.697Z,73.70
2023-05-10T11:37:42.236Z,73.10
2023-05-10T11:40:12.306Z,73.30
2023-05-10T11:42:41.387Z,73.10
2023-05-10T11:45:11.204Z,72.80
2023-05-10T11:47:43.816Z,72.80
2023-05-10T11:50:14.858Z,72.90
2023-05-10T11:52:44.060Z,72.80
2023-05-10T11:55:14.334Z,72.80
2023-05-10T11:57:45.918Z,72.50
2023-05-10T12:00:15.852Z,72.30
2023-05-10T12:02:45.454Z,72.30
2023-05-10T12:05:16.315Z,72.20
2023-05-10T12:07:45.902Z,72.00
2023-05-10T12:10:16.601Z,71.80
2023-05-10T12:12:48.391Z,71.70
2023-05-10T12:15:21.467Z,71.80
2023-05-10T12:17:51.532Z,72.10
2023-05-10T12:20:24.192Z,72.60
2023-05-10T12:22:54.764Z,72.70
2023-05-10T12:25:25.025Z,72.90
2023-05-10T12:27:55.999Z,73.40
2023-05-10T12:30:26.333Z,73.60
2023-05-10T12:32:56.530Z,73.20
2023-05-10T12:35:27.165Z,73.30
2023-05-10T12:37:56.241Z,74.20
2023-05-10T12:40:29.981Z,73.00
2023-05-10T12:42:59.184Z,72.70
2023-05-10T12:45:28.352Z,72.50
2023-05-10T12:47:57.949Z,72.10
2023-05-10T12:50:28.574Z,72.10
2023-05-10T12:52:57.656Z,72.10
2023-05-10T12:55:26.713Z,72.20
2023-05-10T12:57:55.825Z,72.30
2023-05-10T13:00:25.046Z,72.40
2023-05-10T13:02:54.420Z,72.40
2023-05-10T13:05:23.633Z,72.10
2023-05-10T13:07:54.098Z,72.00
2023-05-10T13:10:24.729Z,71.80
2023-05-10T13:12:53.812Z,71.80
2023-05-10T13:15:23.050Z,71.50
2023-05-10T13:17:52.058Z,71.50
2023-05-10T13:20:21.606Z,71.50
2023-05-10T13:22:52.281Z,71.40
2023-05-10T13:25:22.829Z,71.20
2023-05-10T13:27:51.942Z,70.90
2023-05-10T13:30:21.581Z,70.70
2023-05-10T13:32:51.299Z,70.90
2023-05-10T13:35:20.472Z,71.00
2023-05-10T13:37:50.829Z,71.20
2023-05-10T13:40:35.978Z,71.20
2023-05-10T13:43:06.099Z,71.40
2023-05-10T13:45:35.201Z,71.60
2023-05-10T13:48:04.303Z,71.70
2023-05-10T13:50:33.616Z,71.70
2023-05-10T13:53:02.647Z,71.70
2023-05-10T13:55:33.122Z,71.60
2023-05-10T13:58:02.240Z,71.30
2023-05-10T14:00:31.595Z,71.10
2023-05-10T14:03:00.749Z,70.90
2023-05-10T14:05:29.978Z,70.90
2023-05-10T14:07:59.362Z,70.80
2023-05-10T14:10:28.514Z,70.40
2023-05-10T14:12:59.055Z,70.20
2023-05-10T14:15:28.117Z,70.00
2023-05-10T14:18:00.372Z,70.00
2023-05-10T14:20:33.197Z,69.70
2023-05-10T14:23:02.620Z,69.50
2023-05-10T14:25:31.665Z,69.70
2023-05-10T14:28:02.195Z,69.90
2023-05-10T14:30:31.658Z,70.00
2023-05-10T14:33:02.246Z,70.10
2023-05-10T14:35:32.288Z,70.20
2023-05-10T14:38:02.020Z,70.00
2023-05-10T14:40:31.731Z,70.00
2023-05-10T14:43:02.197Z,69.80
2023-05-10T14:45:31.524Z,69.80
2023-05-10T14:48:00.930Z,70.00
2023-05-10T14:50:36.060Z,70.30
2023-05-10T14:53:06.335Z,70.30
2023-05-10T14:55:35.781Z,70.40
2023-05-10T14:58:06.282Z,70.60
2023-05-10T15:00:35.635Z,70.40
2023-05-10T15:03:05.922Z,70.20
2023-05-10T15:05:35.416Z,70.00
2023-05-10T15:08:05.528Z,70.10
2023-05-10T15:10:34.696Z,70.10
2023-05-10T15:13:05.555Z,69.80
2023-05-10T15:15:34.830Z,70.00
2023-05-10T15:18:03.912Z,70.40
2023-05-10T15:20:32.972Z,70.60
2023-05-10T15:23:02.087Z,71.10
2023-05-10T15:25:35.868Z,71.20
2023-05-10T15:28:06.668Z,71.60
2023-05-10T15:30:35.728Z,71.30
2023-05-10T15:33:04.870Z,71.00
2023-05-10T15:35:40.176Z,71.00
2023-05-10T15:38:09.332Z,71.00
2023-05-10T15:40:38.408Z,71.30
2023-05-10T15:43:08.835Z,71.30
2023-05-10T15:45:37.904Z,71.50
2023-05-10T15:48:09.645Z,71.20
2023-05-10T15:50:38.682Z,71.20
2023-05-10T15:53:07.697Z,71.40
2023-05-10T15:55:37.447Z,71.90
2023-05-10T15:58:06.502Z,72.50
2023-05-10T16:00:37.038Z,73.00
2023-05-10T16:03:06.754Z,73.70
2023-05-10T16:05:36.178Z,73.80
2023-05-10T16:08:05.238Z,73.90
2023-05-10T16:10:34.693Z,74.10
2023-05-10T16:13:03.945Z,74.30
2023-05-10T16:15:33.113Z,74.70
2023-05-10T16:18:03.859Z,74.40
2023-05-10T16:20:34.257Z,73.80
2023-05-10T16:23:05.178Z,73.60
2023-05-10T16:25:37.658Z,73.50
2023-05-10T16:28:06.838Z,73.40
2023-05-10T16:30:36.010Z,73.10
2023-05-10T16:33:07.073Z,73.00
2023-05-10T16:35:36.207Z,72.90
2023-05-10T16:38:05.338Z,72.90
2023-05-10T16:40:34.560Z,72.80
2023-05-10T16:43:03.623Z,72.50
2023-05-10T16:45:33.391Z,72.20
2023-05-10T16:48:02.800Z,72.20
2023-05-10T16:50:33.240Z,72.00
2023-05-10T16:53:02.474Z,71.90
2023-05-10T16:55:31.583Z,72.00
2023-05-10T16:58:01.001Z,72.30
2023-05-10T17:00:30.265Z,72.50
2023-05-10T17:02:59.417Z,72.50
2023-05-10T17:05:28.660Z,72.50
2023-05-10T17:07:59.226Z,72.30
2023-05-10T17:10:29.412Z,72.00
2023-05-10T17:13:01.483Z,71.60
2023-05-10T17:15:30.699Z,71.10
2023-05-10T17:17:59.942Z,70.90
2023-05-10T17:20:29.145Z,70.80
2023-05-10T17:22:59.540Z,70.80
2023-05-10T17:25:30.179Z,70.50
2023-05-10T17:28:03.665Z,70.40
2023-05-10T17:30:34.257Z,70.20
2023-05-10T17:33:04.213Z,70.00
2023-05-10T17:35:34.248Z,70.00
2023-05-10T17:38:07.086Z,70.00
2023-05-10T17:40:37.064Z,70.30
2023-05-10T17:43:09.432Z,70.40
2023-05-10T17:45:38.503Z,70.50
2023-05-10T17:48:11.492Z,70.40
2023-05-10T17:50:43.484Z,70.00
2023-05-10T17:53:13.958Z,69.80
2023-05-10T17:55:46.853Z,69.40
2023-05-10T17:58:27.287Z,69.60
2023-05-10T18:00:57.637Z,70.40
2023-05-10T18:03:26.852Z,71.10
2023-05-10T18:05:56.156Z,71.70
2023-05-10T18:08:27.460Z,71.90
2023-05-10T18:10:56.289Z,71.70
2023-05-10T18:13:25.728Z,71.60
2023-05-10T18:15:54.814Z,71.30
2023-05-10T18:18:24.115Z,71.00
2023-05-10T18:20:56.604Z,70.80
2023-05-10T18:23:27.599Z,70.80
2023-05-10T18:25:56.729Z,70.60
2023-05-10T18:28:25.787Z,70.60
2023-05-10T18:30:54.839Z,70.50
2023-05-10T18:33:23.859Z,70.50
2023-05-10T18:35:53.004Z,70.50
2023-05-10T18:38:22.446Z,70.60
2023-05-10T18:40:52.989Z,70.50
2023-05-10T18:43:22.030Z,70.60
2023-05-10T18:45:52.757Z,70.80
2023-05-10T18:48:21.808Z,70.80
2023-05-10T18:50:50.838Z,71.00
2023-05-10T18:53:19.875Z,71.00
2023-05-10T18:55:57.007Z,71.00
2023-05-10T18:58:29.684Z,71.10
2023-05-10T19:00:59.699Z,71.10
2023-05-10T19:03:31.056Z,71.30
2023-05-10T19:06:00.432Z,71.60
2023-05-10T19:08:29.659Z,72.00
2023-05-10T19:10:58.647Z,72.10
2023-05-10T19:13:30.376Z,72.70
2023-05-10T19:16:06.133Z,73.30
2023-05-10T19:18:36.597Z,73.70
2023-05-10T19:21:07.890Z,73.90
2023-05-10T19:23:40.710Z,74.00
2023-05-10T19:26:10.940Z,74.10
2023-05-10T19:28:44.127Z,74.20
2023-05-10T19:31:13.596Z,74.40
2023-05-10T19:33:48.369Z,74.40
2023-05-10T19:36:26.208Z,74.40
2023-05-10T19:38:55.406Z,74.30
2023-05-10T19:41:24.588Z,74.20
2023-05-10T19:43:55.219Z,74.10
2023-05-10T19:46:24.431Z,74.00
2023-05-10T19:48:53.794Z,73.80
2023-05-10T19:51:23.167Z,73.80
2023-05-10T19:53:55.348Z,73.70
2023-05-10T19:56:24.574Z,73.60
2023-05-10T19:58:55.113Z,73.60
2023-05-10T20:01:24.264Z,73.60
2023-05-10T20:03:53.592Z,73.60
2023-05-10T20:06:22.824Z,73.60
2023-05-10T20:08:53.223Z,73.90
2023-05-10T20:11:22.680Z,73.90
2023-05-10T20:13:51.827Z,74.10
2023-05-10T20:16:24.383Z,74.10
2023-05-10T20:18:55.452Z,74.30
2023-05-10T20:21:26.482Z,74.60
2023-05-10T20:23:55.507Z,74.90
2023-05-10T20:26:25.061Z,75.40
2023-05-10T20:28:54.049Z,75.50
2023-05-10T20:31:27.121Z,75.70
2023-05-10T20:33:56.104Z,75.90
2023-05-10T20:36:25.171Z,75.90
2023-05-10T20:38:54.219Z,76.00
2023-05-10T20:41:23.586Z,76.10
2023-05-10T20:43:52.614Z,76.00
2023-05-10T20:46:21.759Z,75.80
2023-05-10T20:48:52.163Z,75.80
2023-05-10T20:51:25.843Z,75.80
2023-05-10T20:53:54.988Z,75.90
2023-05-10T20:56:24.146Z,75.80
2023-05-10T20:58:53.149Z,75.80
2023-05-10T21:01:22.259Z,75.90
2023-05-10T21:03:52.656Z,75.90
2023-05-10T21:06:21.682Z,75.90
2023-05-10T21:08:50.686Z,75.90
2023-05-10T21:11:19.694Z,75.90
2023-05-10T21:13:48.681Z,75.90
2023-05-10T21:16:17.684Z,75.70
2023-05-10T21:18:47.507Z,75.70
2023-05-10T21:21:28.461Z,75.50
2023-05-10T21:23:58.589Z,75.40
2023-05-10T21:26:27.718Z,75.30
2023-05-10T21:28:56.781Z,75.20
2023-05-10T21:31:25.923Z,75.00
2023-05-10T21:33:55.043Z,75.10
2023-05-10T21:36:29.376Z,75.10
2023-05-10T21:39:12.040Z,75.90
2023-05-10T21:41:41.233Z,74.90
2023-05-10T21:44:10.348Z,74.80
2023-05-10T21:46:39.404Z,74.80
2023-05-10T21:49:08.448Z,74.80
2023-05-10T21:51:38.943Z,74.80
2023-05-10T21:54:07.972Z,74.90
2023-05-10T21:56:37.146Z,75.00
2023-05-10T21:59:06.362Z,75.10
2023-05-10T22:01:35.650Z,75.10
2023-05-10T22:04:04.769Z,75.10
2023-05-10T22:06:33.810Z,76.10
2023-05-10T22:09:05.148Z,75.20
2023-05-10T22:11:33.978Z,75.10
2023-05-10T22:14:02.915Z,75.20
2023-05-10T22:16:31.980Z,75.10
2023-05-10T22:19:01.246Z,75.20
2023-05-10T22:21:30.704Z,75.20
2023-05-10T22:23:59.750Z,75.30
2023-05-10T22:26:30.442Z,75.40
2023-05-10T22:28:59.507Z,75.50
2023-05-10T22:31:28.622Z,75.50
2023-05-10T22:33:57.686Z,75.50
2023-05-10T22:36:27.292Z,75.60
2023-05-10T22:38:56.299Z,75.60
2023-05-10T22:41:25.363Z,75.70
2023-05-10T22:43:55.803Z,75.70
2023-05-10T22:46:24.969Z,75.70
2023-05-10T22:48:54.073Z,75.80
2023-05-10T22:51:23.349Z,75.80
2023-05-10T22:53:52.422Z,75.80
2023-05-10T22:56:22.369Z,75.80
2023-05-10T22:58:52.223Z,75.80
2023-05-10T23:01:22.758Z,76.00
2023-05-10T23:03:52.139Z,76.20
2023-05-10T23:06:21.159Z,76.20
2023-05-10T23:08:50.183Z,76.20
2023-05-10T23:14:08.032Z,76.40
2023-05-10T23:16:39.166Z,76.40
2023-05-10T23:19:12.580Z,76.40
2023-05-10T23:21:41.659Z,76.40
2023-05-10T23:24:11.725Z,76.50
2023-05-10T23:26:40.803Z,76.60
2023-05-10T23:29:09.837Z,76.70
2023-05-10T23:31:45.280Z,76.60
2023-05-10T23:34:14.575Z,76.70
2023-05-10T23:36:43.598Z,76.80
2023-05-10T23:39:12.637Z,76.90
2023-05-10T23:41:41.617Z,77.00
2023-05-10T23:44:10.695Z,77.00
2023-05-10T23:46:45.692Z,77.10
2023-05-10T23:49:14.768Z,77.20
2023-05-10T23:51:43.770Z,77.40
2023-05-10T23:54:12.963Z,77.50
2023-05-10T23:56:42.127Z,77.70
2023-05-10T23:59:11.116Z,77.90
